sensor_id;sensor_type;location;lat;lon;timestamp;P1;durP1;ratioP1;P2;durP2;ratioP2
26484;SDS011;18083;50.560;7.262;2022-11-21T00:01:35;8.83;;;2.73;;
26484;SDS011;18083;50.560;7.262;2022-11-21T00:04:02;10.07;;;2.73;;
26484;SDS011;18083;50.560;7.262;2022-11-21T00:06:29;11.70;;;3.33;;
26484;SDS011;18083;50.560;7.262;2022-11-21T00:08:57;7.83;;;3.17;;
26484;SDS011;18083;50.560;7.262;2022-11-21T00:11:24;8.87;;;3.83;;
26484;SDS011;18083;50.560;7.262;2022-11-21T00:13:51;5.53;;;2.93;;
26484;SDS011;18083;50.560;7.262;2022-11-21T00:16:19;8.90;;;2.33;;
26484;SDS011;18083;50.560;7.262;2022-11-21T00:18:47;7.47;;;2.97;;
26484;SDS011;18083;50.560;7.262;2022-11-21T00:21:15;4.93;;;2.20;;
26484;SDS011;18083;50.560;7.262;2022-11-21T00:23:44;4.13;;;2.60;;
26484;SDS011;18083;50.560;7.262;2022-11-21T00:26:31;5.40;;;1.83;;
26484;SDS011;18083;50.560;7.262;2022-11-21T00:28:59;11.90;;;2.33;;
26484;SDS011;18083;50.560;7.262;2022-11-21T00:31:26;10.40;;;1.93;;
26484;SDS011;18083;50.560;7.262;2022-11-21T00:33:53;12.00;;;2.77;;
26484;SDS011;18083;50.560;7.262;2022-11-21T00:36:21;5.90;;;1.80;;
26484;SDS011;18083;50.560;7.262;2022-11-21T00:38:48;5.67;;;2.60;;
26484;SDS011;18083;50.560;7.262;2022-11-21T00:41:15;4.93;;;2.60;;
26484;SDS011;18083;50.560;7.262;2022-11-21T00:43:43;4.67;;;2.17;;
26484;SDS011;18083;50.560;7.262;2022-11-21T00:46:10;3.60;;;2.60;;
26484;SDS011;18083;50.560;7.262;2022-11-21T00:48:37;13.70;;;3.23;;
26484;SDS011;18083;50.560;7.262;2022-11-21T00:51:05;8.57;;;2.10;;
26484;SDS011;18083;50.560;7.262;2022-11-21T00:53:32;8.87;;;2.70;;
26484;SDS011;18083;50.560;7.262;2022-11-21T00:55:59;3.30;;;2.10;;
26484;SDS011;18083;50.560;7.262;2022-11-21T00:58:27;5.17;;;2.70;;
26484;SDS011;18083;50.560;7.262;2022-11-21T01:01:01;7.17;;;2.60;;
26484;SDS011;18083;50.560;7.262;2022-11-21T01:06:15;12.70;;;2.93;;
26484;SDS011;18083;50.560;7.262;2022-11-21T01:08:43;14.10;;;2.90;;
26484;SDS011;18083;50.560;7.262;2022-11-21T01:11:11;8.13;;;2.60;;
26484;SDS011;18083;50.560;7.262;2022-11-21T01:13:39;5.87;;;2.60;;
26484;SDS011;18083;50.560;7.262;2022-11-21T01:16:13;12.03;;;2.57;;
26484;SDS011;18083;50.560;7.262;2022-11-21T01:18:57;15.53;;;3.30;;
26484;SDS011;18083;50.560;7.262;2022-11-21T01:21:26;10.20;;;2.87;;
26484;SDS011;18083;50.560;7.262;2022-11-21T01:23:54;9.33;;;3.40;;
26484;SDS011;18083;50.560;7.262;2022-11-21T01:26:25;7.87;;;2.73;;
26484;SDS011;18083;50.560;7.262;2022-11-21T01:28:53;14.73;;;2.97;;
26484;SDS011;18083;50.560;7.262;2022-11-21T01:31:22;9.30;;;3.10;;
26484;SDS011;18083;50.560;7.262;2022-11-21T01:33:49;9.07;;;3.43;;
26484;SDS011;18083;50.560;7.262;2022-11-21T01:36:17;10.00;;;4.07;;
26484;SDS011;18083;50.560;7.262;2022-11-21T01:38:50;9.43;;;3.10;;
26484;SDS011;18083;50.560;7.262;2022-11-21T01:41:18;5.27;;;2.60;;
26484;SDS011;18083;50.560;7.262;2022-11-21T01:43:45;10.37;;;3.07;;
26484;SDS011;18083;50.560;7.262;2022-11-21T01:46:17;10.87;;;3.03;;
26484;SDS011;18083;50.560;7.262;2022-11-21T01:48:55;11.53;;;3.17;;
26484;SDS011;18083;50.560;7.262;2022-11-21T01:51:27;10.40;;;2.97;;
26484;SDS011;18083;50.560;7.262;2022-11-21T01:53:56;11.47;;;3.33;;
26484;SDS011;18083;50.560;7.262;2022-11-21T01:56:22;13.90;;;4.43;;
26484;SDS011;18083;50.560;7.262;2022-11-21T01:59:11;10.37;;;3.00;;
26484;SDS011;18083;50.560;7.262;2022-11-21T02:01:39;11.57;;;3.50;;
26484;SDS011;18083;50.560;7.262;2022-11-21T02:04:07;10.73;;;2.83;;
26484;SDS011;18083;50.560;7.262;2022-11-21T02:06:34;13.67;;;4.07;;
26484;SDS011;18083;50.560;7.262;2022-11-21T02:09:03;12.33;;;3.50;;
26484;SDS011;18083;50.560;7.262;2022-11-21T02:11:34;12.40;;;3.23;;
26484;SDS011;18083;50.560;7.262;2022-11-21T02:14:00;16.07;;;5.87;;
26484;SDS011;18083;50.560;7.262;2022-11-21T02:16:27;4.80;;;3.13;;
26484;SDS011;18083;50.560;7.262;2022-11-21T02:18:55;7.57;;;3.17;;
26484;SDS011;18083;50.560;7.262;2022-11-21T02:21:27;11.13;;;3.77;;
26484;SDS011;18083;50.560;7.262;2022-11-21T02:24:16;5.40;;;2.63;;
26484;SDS011;18083;50.560;7.262;2022-11-21T02:26:43;10.27;;;4.10;;
26484;SDS011;18083;50.560;7.262;2022-11-21T02:29:11;14.23;;;4.33;;
26484;SDS011;18083;50.560;7.262;2022-11-21T02:31:39;9.43;;;2.97;;
26484;SDS011;18083;50.560;7.262;2022-11-21T02:34:06;7.57;;;3.23;;
26484;SDS011;18083;50.560;7.262;2022-11-21T02:36:35;10.13;;;3.57;;
26484;SDS011;18083;50.560;7.262;2022-11-21T02:39:03;5.87;;;2.90;;
26484;SDS011;18083;50.560;7.262;2022-11-21T02:41:31;13.93;;;4.10;;
26484;SDS011;18083;50.560;7.262;2022-11-21T02:44:18;7.03;;;2.60;;
26484;SDS011;18083;50.560;7.262;2022-11-21T02:46:50;5.50;;;3.00;;
26484;SDS011;18083;50.560;7.262;2022-11-21T02:49:21;8.17;;;2.30;;
26484;SDS011;18083;50.560;7.262;2022-11-21T02:51:47;10.33;;;2.97;;
26484;SDS011;18083;50.560;7.262;2022-11-21T02:54:14;9.37;;;2.37;;
26484;SDS011;18083;50.560;7.262;2022-11-21T02:56:42;8.93;;;3.67;;
26484;SDS011;18083;50.560;7.262;2022-11-21T02:59:09;13.43;;;3.07;;
26484;SDS011;18083;50.560;7.262;2022-11-21T03:01:36;7.03;;;2.90;;
26484;SDS011;18083;50.560;7.262;2022-11-21T03:04:03;5.73;;;2.50;;
26484;SDS011;18083;50.560;7.262;2022-11-21T03:06:31;6.77;;;3.47;;
26484;SDS011;18083;50.560;7.262;2022-11-21T03:08:58;8.50;;;3.50;;
26484;SDS011;18083;50.560;7.262;2022-11-21T03:11:25;10.03;;;4.17;;
26484;SDS011;18083;50.560;7.262;2022-11-21T03:13:53;4.63;;;2.77;;
26484;SDS011;18083;50.560;7.262;2022-11-21T03:16:20;8.37;;;4.37;;
26484;SDS011;18083;50.560;7.262;2022-11-21T03:18:48;9.43;;;2.63;;
26484;SDS011;18083;50.560;7.262;2022-11-21T03:21:15;8.50;;;3.47;;
26484;SDS011;18083;50.560;7.262;2022-11-21T03:23:42;4.10;;;2.77;;
26484;SDS011;18083;50.560;7.262;2022-11-21T03:26:10;9.53;;;2.63;;
26484;SDS011;18083;50.560;7.262;2022-11-21T03:28:37;6.80;;;3.23;;
26484;SDS011;18083;50.560;7.262;2022-11-21T03:31:05;10.40;;;2.70;;
26484;SDS011;18083;50.560;7.262;2022-11-21T03:33:32;8.40;;;2.70;;
26484;SDS011;18083;50.560;7.262;2022-11-21T03:35:59;7.83;;;2.97;;
26484;SDS011;18083;50.560;7.262;2022-11-21T03:38:27;5.33;;;2.60;;
26484;SDS011;18083;50.560;7.262;2022-11-21T03:40:54;10.83;;;3.00;;
26484;SDS011;18083;50.560;7.262;2022-11-21T03:43:21;14.23;;;3.07;;
26484;SDS011;18083;50.560;7.262;2022-11-21T03:45:49;7.40;;;3.00;;
26484;SDS011;18083;50.560;7.262;2022-11-21T03:48:16;5.57;;;2.77;;
26484;SDS011;18083;50.560;7.262;2022-11-21T03:50:43;6.23;;;2.40;;
26484;SDS011;18083;50.560;7.262;2022-11-21T03:53:11;7.03;;;3.07;;
26484;SDS011;18083;50.560;7.262;2022-11-21T03:55:38;7.97;;;3.43;;
26484;SDS011;18083;50.560;7.262;2022-11-21T03:58:05;6.07;;;3.87;;
26484;SDS011;18083;50.560;7.262;2022-11-21T04:00:33;7.13;;;2.50;;
26484;SDS011;18083;50.560;7.262;2022-11-21T04:03:00;5.10;;;2.20;;
26484;SDS011;18083;50.560;7.262;2022-11-21T04:05:27;6.37;;;2.30;;
26484;SDS011;18083;50.560;7.262;2022-11-21T04:07:55;4.70;;;3.13;;
26484;SDS011;18083;50.560;7.262;2022-11-21T04:10:22;11.43;;;3.23;;
26484;SDS011;18083;50.560;7.262;2022-11-21T04:12:49;8.10;;;2.80;;
26484;SDS011;18083;50.560;7.262;2022-11-21T04:15:17;6.83;;;2.97;;
26484;SDS011;18083;50.560;7.262;2022-11-21T04:17:44;8.67;;;3.70;;
26484;SDS011;18083;50.560;7.262;2022-11-21T04:20:11;9.43;;;2.50;;
26484;SDS011;18083;50.560;7.262;2022-11-21T04:22:38;9.77;;;2.73;;
26484;SDS011;18083;50.560;7.262;2022-11-21T04:25:06;3.63;;;2.10;;
26484;SDS011;18083;50.560;7.262;2022-11-21T04:27:33;8.03;;;2.73;;
26484;SDS011;18083;50.560;7.262;2022-11-21T04:30:01;5.77;;;2.67;;
26484;SDS011;18083;50.560;7.262;2022-11-21T04:32:28;4.77;;;3.00;;
26484;SDS011;18083;50.560;7.262;2022-11-21T04:34:55;13.20;;;4.43;;
26484;SDS011;18083;50.560;7.262;2022-11-21T04:37:23;10.40;;;3.00;;
26484;SDS011;18083;50.560;7.262;2022-11-21T04:39:50;5.37;;;2.93;;
26484;SDS011;18083;50.560;7.262;2022-11-21T04:42:17;7.60;;;2.97;;
26484;SDS011;18083;50.560;7.262;2022-11-21T04:44:45;11.07;;;3.10;;
26484;SDS011;18083;50.560;7.262;2022-11-21T04:47:12;11.43;;;4.47;;
26484;SDS011;18083;50.560;7.262;2022-11-21T04:49:39;6.43;;;3.17;;
26484;SDS011;18083;50.560;7.262;2022-11-21T04:52:07;6.43;;;2.83;;
26484;SDS011;18083;50.560;7.262;2022-11-21T04:54:34;6.30;;;2.60;;
26484;SDS011;18083;50.560;7.262;2022-11-21T04:57:01;10.47;;;3.03;;
26484;SDS011;18083;50.560;7.262;2022-11-21T04:59:29;4.63;;;3.07;;
26484;SDS011;18083;50.560;7.262;2022-11-21T05:01:56;6.53;;;3.33;;
26484;SDS011;18083;50.560;7.262;2022-11-21T05:07:10;3.83;;;2.97;;
26484;SDS011;18083;50.560;7.262;2022-11-21T05:09:37;10.33;;;2.77;;
26484;SDS011;18083;50.560;7.262;2022-11-21T05:12:05;6.87;;;3.20;;
26484;SDS011;18083;50.560;7.262;2022-11-21T05:14:50;3.50;;;2.50;;
26484;SDS011;18083;50.560;7.262;2022-11-21T05:17:18;6.60;;;4.30;;
26484;SDS011;18083;50.560;7.262;2022-11-21T05:19:45;5.10;;;2.17;;
26484;SDS011;18083;50.560;7.262;2022-11-21T05:22:12;7.50;;;2.80;;
26484;SDS011;18083;50.560;7.262;2022-11-21T05:24:40;5.03;;;2.30;;
26484;SDS011;18083;50.560;7.262;2022-11-21T05:27:07;2.93;;;1.80;;
26484;SDS011;18083;50.560;7.262;2022-11-21T05:29:34;4.63;;;2.20;;
26484;SDS011;18083;50.560;7.262;2022-11-21T05:32:02;2.93;;;1.93;;
26484;SDS011;18083;50.560;7.262;2022-11-21T05:34:29;3.27;;;1.93;;
26484;SDS011;18083;50.560;7.262;2022-11-21T05:36:57;3.30;;;2.10;;
26484;SDS011;18083;50.560;7.262;2022-11-21T05:39:24;4.27;;;2.40;;
26484;SDS011;18083;50.560;7.262;2022-11-21T05:41:52;7.07;;;2.30;;
26484;SDS011;18083;50.560;7.262;2022-11-21T05:44:19;5.30;;;2.80;;
26484;SDS011;18083;50.560;7.262;2022-11-21T05:46:46;4.30;;;2.60;;
26484;SDS011;18083;50.560;7.262;2022-11-21T05:49:14;2.73;;;2.00;;
26484;SDS011;18083;50.560;7.262;2022-11-21T05:51:41;4.87;;;2.60;;
26484;SDS011;18083;50.560;7.262;2022-11-21T05:54:12;5.27;;;2.80;;
26484;SDS011;18083;50.560;7.262;2022-11-21T05:56:40;4.67;;;2.80;;
26484;SDS011;18083;50.560;7.262;2022-11-21T05:59:07;8.47;;;3.10;;
26484;SDS011;18083;50.560;7.262;2022-11-21T06:01:36;6.90;;;2.93;;
26484;SDS011;18083;50.560;7.262;2022-11-21T06:04:21;3.67;;;2.60;;
26484;SDS011;18083;50.560;7.262;2022-11-21T06:06:48;6.90;;;3.43;;
26484;SDS011;18083;50.560;7.262;2022-11-21T06:09:16;4.10;;;3.10;;
26484;SDS011;18083;50.560;7.262;2022-11-21T06:11:43;6.27;;;3.03;;
26484;SDS011;18083;50.560;7.262;2022-11-21T06:14:10;9.90;;;3.73;;
26484;SDS011;18083;50.560;7.262;2022-11-21T06:16:38;4.30;;;2.87;;
26484;SDS011;18083;50.560;7.262;2022-11-21T06:19:05;10.40;;;4.47;;
26484;SDS011;18083;50.560;7.262;2022-11-21T06:21:32;15.77;;;6.17;;
26484;SDS011;18083;50.560;7.262;2022-11-21T06:24:01;29.50;;;12.20;;
26484;SDS011;18083;50.560;7.262;2022-11-21T06:26:29;34.20;;;14.77;;
26484;SDS011;18083;50.560;7.262;2022-11-21T06:28:56;29.07;;;12.33;;
26484;SDS011;18083;50.560;7.262;2022-11-21T06:31:24;26.13;;;11.90;;
26484;SDS011;18083;50.560;7.262;2022-11-21T06:33:57;32.17;;;13.17;;
26484;SDS011;18083;50.560;7.262;2022-11-21T06:36:21;21.80;;;8.17;;
26484;SDS011;18083;50.560;7.262;2022-11-21T06:38:48;14.47;;;5.30;;
26484;SDS011;18083;50.560;7.262;2022-11-21T06:41:17;10.30;;;4.50;;
26484;SDS011;18083;50.560;7.262;2022-11-21T06:43:45;6.73;;;3.60;;
26484;SDS011;18083;50.560;7.262;2022-11-21T06:46:13;8.03;;;4.17;;
26484;SDS011;18083;50.560;7.262;2022-11-21T06:48:41;13.00;;;5.80;;
26484;SDS011;18083;50.560;7.262;2022-11-21T06:51:13;10.13;;;5.40;;
26484;SDS011;18083;50.560;7.262;2022-11-21T06:56:28;13.33;;;5.63;;
26484;SDS011;18083;50.560;7.262;2022-11-21T06:58:56;6.40;;;4.03;;
26484;SDS011;18083;50.560;7.262;2022-11-21T07:01:23;12.83;;;5.97;;
26484;SDS011;18083;50.560;7.262;2022-11-21T07:03:51;12.10;;;8.57;;
26484;SDS011;18083;50.560;7.262;2022-11-21T07:06:18;18.80;;;5.50;;
26484;SDS011;18083;50.560;7.262;2022-11-21T07:08:50;12.27;;;7.47;;
26484;SDS011;18083;50.560;7.262;2022-11-21T07:11:16;12.33;;;6.90;;
26484;SDS011;18083;50.560;7.262;2022-11-21T07:13:43;15.30;;;8.40;;
26484;SDS011;18083;50.560;7.262;2022-11-21T07:16:11;10.53;;;6.83;;
26484;SDS011;18083;50.560;7.262;2022-11-21T07:18:41;8.23;;;5.63;;
26484;SDS011;18083;50.560;7.262;2022-11-21T07:21:10;13.47;;;5.80;;
26484;SDS011;18083;50.560;7.262;2022-11-21T07:23:38;8.40;;;5.27;;
26484;SDS011;18083;50.560;7.262;2022-11-21T07:26:06;7.07;;;5.57;;
26484;SDS011;18083;50.560;7.262;2022-11-21T07:28:34;11.73;;;6.30;;
26484;SDS011;18083;50.560;7.262;2022-11-21T07:31:01;9.03;;;6.43;;
26484;SDS011;18083;50.560;7.262;2022-11-21T07:33:29;14.67;;;6.67;;
26484;SDS011;18083;50.560;7.262;2022-11-21T07:35:57;10.47;;;6.17;;
26484;SDS011;18083;50.560;7.262;2022-11-21T07:38:24;14.23;;;7.00;;
26484;SDS011;18083;50.560;7.262;2022-11-21T07:40:52;13.20;;;5.87;;
26484;SDS011;18083;50.560;7.262;2022-11-21T07:43:19;7.23;;;5.00;;
26484;SDS011;18083;50.560;7.262;2022-11-21T07:45:46;9.60;;;5.30;;
26484;SDS011;18083;50.560;7.262;2022-11-21T07:48:14;11.80;;;4.87;;
26484;SDS011;18083;50.560;7.262;2022-11-21T07:50:41;14.13;;;6.67;;
26484;SDS011;18083;50.560;7.262;2022-11-21T07:53:09;10.80;;;5.33;;
26484;SDS011;18083;50.560;7.262;2022-11-21T07:55:39;10.97;;;4.83;;
26484;SDS011;18083;50.560;7.262;2022-11-21T07:58:08;5.97;;;5.23;;
26484;SDS011;18083;50.560;7.262;2022-11-21T08:00:36;15.83;;;5.07;;
26484;SDS011;18083;50.560;7.262;2022-11-21T08:03:04;10.73;;;4.47;;
26484;SDS011;18083;50.560;7.262;2022-11-21T08:05:38;10.50;;;5.50;;
26484;SDS011;18083;50.560;7.262;2022-11-21T08:08:07;5.33;;;4.10;;
26484;SDS011;18083;50.560;7.262;2022-11-21T08:10:38;11.37;;;5.13;;
26484;SDS011;18083;50.560;7.262;2022-11-21T08:13:06;8.20;;;3.87;;
26484;SDS011;18083;50.560;7.262;2022-11-21T08:15:33;9.30;;;4.90;;
26484;SDS011;18083;50.560;7.262;2022-11-21T08:18:08;10.43;;;5.67;;
26484;SDS011;18083;50.560;7.262;2022-11-21T08:20:32;9.27;;;4.17;;
26484;SDS011;18083;50.560;7.262;2022-11-21T08:23:00;5.43;;;4.30;;
26484;SDS011;18083;50.560;7.262;2022-11-21T08:25:27;11.37;;;5.63;;
26484;SDS011;18083;50.560;7.262;2022-11-21T08:27:55;11.67;;;6.37;;
26484;SDS011;18083;50.560;7.262;2022-11-21T08:30:22;7.30;;;5.50;;
26484;SDS011;18083;50.560;7.262;2022-11-21T08:32:50;8.43;;;6.37;;
26484;SDS011;18083;50.560;7.262;2022-11-21T08:35:17;13.20;;;6.07;;
26484;SDS011;18083;50.560;7.262;2022-11-21T08:40:32;11.83;;;6.00;;
26484;SDS011;18083;50.560;7.262;2022-11-21T08:43:00;9.27;;;6.20;;
26484;SDS011;18083;50.560;7.262;2022-11-21T08:45:28;17.77;;;5.53;;
26484;SDS011;18083;50.560;7.262;2022-11-21T08:47:55;11.20;;;4.47;;
26484;SDS011;18083;50.560;7.262;2022-11-21T08:50:23;10.87;;;5.40;;
26484;SDS011;18083;50.560;7.262;2022-11-21T08:52:50;10.00;;;4.90;;
26484;SDS011;18083;50.560;7.262;2022-11-21T08:55:18;7.57;;;4.70;;
26484;SDS011;18083;50.560;7.262;2022-11-21T08:57:45;6.50;;;4.73;;
26484;SDS011;18083;50.560;7.262;2022-11-21T09:00:13;7.87;;;4.87;;
26484;SDS011;18083;50.560;7.262;2022-11-21T09:02:40;6.03;;;4.73;;
26484;SDS011;18083;50.560;7.262;2022-11-21T09:05:08;7.67;;;4.70;;
26484;SDS011;18083;50.560;7.262;2022-11-21T09:07:35;10.87;;;3.77;;
26484;SDS011;18083;50.560;7.262;2022-11-21T09:10:03;6.87;;;4.33;;
26484;SDS011;18083;50.560;7.262;2022-11-21T09:12:30;6.27;;;3.63;;
26484;SDS011;18083;50.560;7.262;2022-11-21T09:14:58;11.50;;;4.73;;
26484;SDS011;18083;50.560;7.262;2022-11-21T09:17:43;10.30;;;5.77;;
26484;SDS011;18083;50.560;7.262;2022-11-21T09:20:37;8.63;;;4.00;;
26484;SDS011;18083;50.560;7.262;2022-11-21T09:23:05;6.40;;;3.83;;
26484;SDS011;18083;50.560;7.262;2022-11-21T09:26:00;7.60;;;4.17;;
26484;SDS011;18083;50.560;7.262;2022-11-21T09:28:27;3.70;;;3.30;;
26484;SDS011;18083;50.560;7.262;2022-11-21T09:30:55;8.90;;;5.07;;
26484;SDS011;18083;50.560;7.262;2022-11-21T09:33:22;4.73;;;3.67;;
26484;SDS011;18083;50.560;7.262;2022-11-21T09:35:49;9.93;;;4.27;;
26484;SDS011;18083;50.560;7.262;2022-11-21T09:38:17;6.83;;;4.70;;
26484;SDS011;18083;50.560;7.262;2022-11-21T09:40:45;9.00;;;4.37;;
26484;SDS011;18083;50.560;7.262;2022-11-21T09:46:09;7.00;;;5.10;;
26484;SDS011;18083;50.560;7.262;2022-11-21T09:51:18;5.47;;;3.93;;
26484;SDS011;18083;50.560;7.262;2022-11-21T09:54:06;3.07;;;2.60;;
26484;SDS011;18083;50.560;7.262;2022-11-21T09:56:34;5.57;;;2.93;;
26484;SDS011;18083;50.560;7.262;2022-11-21T09:59:16;3.10;;;2.50;;
26484;SDS011;18083;50.560;7.262;2022-11-21T10:01:40;4.30;;;3.03;;
26484;SDS011;18083;50.560;7.262;2022-11-21T10:04:08;4.73;;;2.60;;
26484;SDS011;18083;50.560;7.262;2022-11-21T10:06:36;3.10;;;2.10;;
26484;SDS011;18083;50.560;7.262;2022-11-21T10:32:37;6.23;;;2.10;;
26484;SDS011;18083;50.560;7.262;2022-11-21T10:37:53;4.50;;;1.80;;
26484;SDS011;18083;50.560;7.262;2022-11-21T10:40:21;1.80;;;1.20;;
26484;SDS011;18083;50.560;7.262;2022-11-21T10:42:54;3.00;;;1.20;;
26484;SDS011;18083;50.560;7.262;2022-11-21T10:45:21;2.80;;;1.37;;
26484;SDS011;18083;50.560;7.262;2022-11-21T10:47:49;3.63;;;1.50;;
26484;SDS011;18083;50.560;7.262;2022-11-21T10:53:17;2.47;;;1.47;;
26484;SDS011;18083;50.560;7.262;2022-11-21T10:56:03;1.43;;;1.33;;
26484;SDS011;18083;50.560;7.262;2022-11-21T10:58:41;3.23;;;1.83;;
26484;SDS011;18083;50.560;7.262;2022-11-21T11:01:18;2.07;;;1.87;;
26484;SDS011;18083;50.560;7.262;2022-11-21T11:03:46;2.97;;;1.30;;
26484;SDS011;18083;50.560;7.262;2022-11-21T11:06:13;6.20;;;1.30;;
26484;SDS011;18083;50.560;7.262;2022-11-21T11:08:49;1.90;;;1.60;;
26484;SDS011;18083;50.560;7.262;2022-11-21T11:11:19;5.62;;;1.70;;
26484;SDS011;18083;50.560;7.262;2022-11-21T11:13:52;2.77;;;1.57;;
26484;SDS011;18083;50.560;7.262;2022-11-21T11:16:18;2.80;;;1.12;;
26484;SDS011;18083;50.560;7.262;2022-11-21T11:19:05;1.70;;;1.60;;
26484;SDS011;18083;50.560;7.262;2022-11-21T11:21:41;1.43;;;1.23;;
26484;SDS011;18083;50.560;7.262;2022-11-21T11:24:32;1.47;;;1.07;;
26484;SDS011;18083;50.560;7.262;2022-11-21T11:26:33;3.35;;;1.10;;
26484;SDS011;18083;50.560;7.262;2022-11-21T11:29:14;2.95;;;1.12;;
26484;SDS011;18083;50.560;7.262;2022-11-21T11:31:54;1.27;;;1.17;;
26484;SDS011;18083;50.560;7.262;2022-11-21T11:45:29;2.70;;;1.05;;
26484;SDS011;18083;50.560;7.262;2022-11-21T11:48:09;1.15;;;1.07;;
26484;SDS011;18083;50.560;7.262;2022-11-21T11:58:15;4.17;;;1.25;;
26484;SDS011;18083;50.560;7.262;2022-11-21T12:00:40;2.80;;;1.10;;
26484;SDS011;18083;50.560;7.262;2022-11-21T12:03:12;2.60;;;1.10;;
26484;SDS011;18083;50.560;7.262;2022-11-21T12:05:44;2.77;;;1.33;;
26484;SDS011;18083;50.560;7.262;2022-11-21T12:08:13;2.70;;;1.20;;
26484;SDS011;18083;50.560;7.262;2022-11-21T12:10:44;5.77;;;1.40;;
26484;SDS011;18083;50.560;7.262;2022-11-21T12:13:10;2.17;;;1.03;;
26484;SDS011;18083;50.560;7.262;2022-11-21T12:15:43;3.30;;;1.53;;
26484;SDS011;18083;50.560;7.262;2022-11-21T12:21:33;3.75;;;1.10;;
26484;SDS011;18083;50.560;7.262;2022-11-21T12:23:16;3.70;;;0.80;;
26484;SDS011;18083;50.560;7.262;2022-11-21T12:25:51;3.67;;;0.98;;
26484;SDS011;18083;50.560;7.262;2022-11-21T12:28:20;6.53;;;1.13;;
26484;SDS011;18083;50.560;7.262;2022-11-21T12:33:19;1.10;;;1.00;;
26484;SDS011;18083;50.560;7.262;2022-11-21T12:41:13;2.13;;;1.10;;
26484;SDS011;18083;50.560;7.262;2022-11-21T12:43:59;1.83;;;1.10;;
26484;SDS011;18083;50.560;7.262;2022-11-21T12:46:33;6.20;;;1.40;;
26484;SDS011;18083;50.560;7.262;2022-11-21T12:50:02;2.80;;;1.20;;
26484;SDS011;18083;50.560;7.262;2022-11-21T12:54:59;3.17;;;1.23;;
26484;SDS011;18083;50.560;7.262;2022-11-21T12:57:24;1.57;;;1.23;;
26484;SDS011;18083;50.560;7.262;2022-11-21T13:05:04;5.10;;;1.47;;
26484;SDS011;18083;50.560;7.262;2022-11-21T13:07:33;6.60;;;1.77;;
26484;SDS011;18083;50.560;7.262;2022-11-21T13:10:01;2.97;;;1.47;;
26484;SDS011;18083;50.560;7.262;2022-11-21T13:12:32;8.47;;;2.53;;
26484;SDS011;18083;50.560;7.262;2022-11-21T13:15:03;2.40;;;1.23;;
26484;SDS011;18083;50.560;7.262;2022-11-21T13:25:49;2.60;;;1.60;;
26484;SDS011;18083;50.560;7.262;2022-11-21T13:27:35;2.03;;;1.03;;
26484;SDS011;18083;50.560;7.262;2022-11-21T13:32:46;4.90;;;1.57;;
26484;SDS011;18083;50.560;7.262;2022-11-21T13:45:42;3.93;;;2.00;;
26484;SDS011;18083;50.560;7.262;2022-11-21T13:48:30;7.23;;;3.40;;
26484;SDS011;18083;50.560;7.262;2022-11-21T13:50:57;7.47;;;2.43;;
26484;SDS011;18083;50.560;7.262;2022-11-21T13:53:41;5.60;;;1.87;;
26484;SDS011;18083;50.560;7.262;2022-11-21T14:01:31;4.10;;;2.57;;
26484;SDS011;18083;50.560;7.262;2022-11-21T14:04:05;8.27;;;3.37;;
26484;SDS011;18083;50.560;7.262;2022-11-21T14:06:34;3.27;;;1.80;;
26484;SDS011;18083;50.560;7.262;2022-11-21T14:11:47;5.57;;;1.70;;
26484;SDS011;18083;50.560;7.262;2022-11-21T14:14:29;5.67;;;2.13;;
26484;SDS011;18083;50.560;7.262;2022-11-21T14:19:25;4.40;;;2.47;;
26484;SDS011;18083;50.560;7.262;2022-11-21T14:21:53;4.53;;;2.23;;
26484;SDS011;18083;50.560;7.262;2022-11-21T14:24:20;3.60;;;2.50;;
26484;SDS011;18083;50.560;7.262;2022-11-21T14:26:48;6.57;;;2.73;;
26484;SDS011;18083;50.560;7.262;2022-11-21T14:29:17;9.73;;;2.80;;
26484;SDS011;18083;50.560;7.262;2022-11-21T14:31:47;6.90;;;2.43;;
26484;SDS011;18083;50.560;7.262;2022-11-21T14:34:28;9.20;;;2.87;;
26484;SDS011;18083;50.560;7.262;2022-11-21T14:37:01;7.43;;;2.77;;
26484;SDS011;18083;50.560;7.262;2022-11-21T14:39:25;7.90;;;2.70;;
26484;SDS011;18083;50.560;7.262;2022-11-21T14:41:56;6.23;;;3.07;;
26484;SDS011;18083;50.560;7.262;2022-11-21T14:44:22;4.63;;;2.50;;
26484;SDS011;18083;50.560;7.262;2022-11-21T14:46:50;6.33;;;1.93;;
26484;SDS011;18083;50.560;7.262;2022-11-21T14:49:19;8.27;;;2.13;;
26484;SDS011;18083;50.560;7.262;2022-11-21T14:51:47;6.03;;;2.20;;
26484;SDS011;18083;50.560;7.262;2022-11-21T14:54:20;3.93;;;1.90;;
26484;SDS011;18083;50.560;7.262;2022-11-21T14:56:51;6.57;;;2.10;;
26484;SDS011;18083;50.560;7.262;2022-11-21T14:59:19;5.00;;;2.63;;
26484;SDS011;18083;50.560;7.262;2022-11-21T15:01:42;4.37;;;1.60;;
26484;SDS011;18083;50.560;7.262;2022-11-21T15:04:10;8.63;;;2.60;;
26484;SDS011;18083;50.560;7.262;2022-11-21T15:06:41;5.67;;;1.87;;
26484;SDS011;18083;50.560;7.262;2022-11-21T15:09:12;3.83;;;1.93;;
26484;SDS011;18083;50.560;7.262;2022-11-21T15:11:45;5.97;;;2.40;;
26484;SDS011;18083;50.560;7.262;2022-11-21T15:14:19;8.60;;;2.73;;
26484;SDS011;18083;50.560;7.262;2022-11-21T15:16:46;6.90;;;2.40;;
26484;SDS011;18083;50.560;7.262;2022-11-21T15:19:19;7.60;;;3.20;;
26484;SDS011;18083;50.560;7.262;2022-11-21T15:21:47;6.50;;;2.10;;
26484;SDS011;18083;50.560;7.262;2022-11-21T15:24:26;6.47;;;3.03;;
26484;SDS011;18083;50.560;7.262;2022-11-21T15:26:43;5.60;;;2.87;;
26484;SDS011;18083;50.560;7.262;2022-11-21T15:29:17;6.60;;;2.67;;
26484;SDS011;18083;50.560;7.262;2022-11-21T15:32:04;9.50;;;2.40;;
26484;SDS011;18083;50.560;7.262;2022-11-21T15:34:26;8.67;;;2.80;;
26484;SDS011;18083;50.560;7.262;2022-11-21T15:37:00;7.73;;;2.30;;
26484;SDS011;18083;50.560;7.262;2022-11-21T15:39:28;10.47;;;2.40;;
26484;SDS011;18083;50.560;7.262;2022-11-21T15:42:26;6.37;;;3.47;;
26484;SDS011;18083;50.560;7.262;2022-11-21T15:44:25;10.70;;;6.10;;
26484;SDS011;18083;50.560;7.262;2022-11-21T15:46:53;8.03;;;3.83;;
26484;SDS011;18083;50.560;7.262;2022-11-21T15:49:20;6.40;;;2.87;;
26484;SDS011;18083;50.560;7.262;2022-11-21T15:51:49;7.17;;;3.03;;
26484;SDS011;18083;50.560;7.262;2022-11-21T15:54:17;8.07;;;4.60;;
26484;SDS011;18083;50.560;7.262;2022-11-21T15:56:45;9.37;;;3.70;;
26484;SDS011;18083;50.560;7.262;2022-11-21T15:59:13;5.63;;;3.13;;
26484;SDS011;18083;50.560;7.262;2022-11-21T16:01:41;5.77;;;2.70;;
26484;SDS011;18083;50.560;7.262;2022-11-21T16:04:09;10.57;;;2.43;;
26484;SDS011;18083;50.560;7.262;2022-11-21T16:06:37;4.80;;;2.10;;
26484;SDS011;18083;50.560;7.262;2022-11-21T16:09:04;7.30;;;2.47;;
26484;SDS011;18083;50.560;7.262;2022-11-21T16:11:36;5.20;;;2.10;;
26484;SDS011;18083;50.560;7.262;2022-11-21T16:14:03;8.30;;;2.03;;
26484;SDS011;18083;50.560;7.262;2022-11-21T16:16:36;2.83;;;2.53;;
26484;SDS011;18083;50.560;7.262;2022-11-21T16:19:02;5.57;;;2.50;;
26484;SDS011;18083;50.560;7.262;2022-11-21T16:21:30;5.90;;;2.30;;
26484;SDS011;18083;50.560;7.262;2022-11-21T16:23:59;5.67;;;2.03;;
26484;SDS011;18083;50.560;7.262;2022-11-21T16:26:27;5.53;;;1.90;;
26484;SDS011;18083;50.560;7.262;2022-11-21T16:28:55;4.73;;;2.47;;
26484;SDS011;18083;50.560;7.262;2022-11-21T16:31:24;4.57;;;2.43;;
26484;SDS011;18083;50.560;7.262;2022-11-21T16:33:51;3.33;;;2.40;;
26484;SDS011;18083;50.560;7.262;2022-11-21T16:36:24;7.20;;;3.00;;
26484;SDS011;18083;50.560;7.262;2022-11-21T16:38:48;7.33;;;3.67;;
26484;SDS011;18083;50.560;7.262;2022-11-21T16:41:16;5.60;;;3.03;;
26484;SDS011;18083;50.560;7.262;2022-11-21T16:43:46;7.03;;;3.17;;
26484;SDS011;18083;50.560;7.262;2022-11-21T16:46:15;6.90;;;2.40;;
26484;SDS011;18083;50.560;7.262;2022-11-21T16:48:42;5.97;;;2.73;;
26484;SDS011;18083;50.560;7.262;2022-11-21T16:51:11;6.93;;;2.17;;